Time;durP1;ratioP1;P1;durP2;ratioP2;P2;SDS_P1;SDS_P2;PMS_P1;PMS_P2;Temp;Humidity;BMP_temperature;BMP_pressure;BME280_temperature;BME280_humidity;BME280_pressure;Samples;Min_cycle;Max_cycle;Signal;HPM_P1;HPM_P2
2021/10/03 00:01:59;;;;;;;9.70;7.80;;;;;;;4.25;96.28;93801.22;1776297;77;21011;-87
2021/10/03 00:04:32;;;;;;;10.28;7.83;;;;;;;4.20;96.60;93798.23;1807662;77;21524;-86
2021/10/03 00:06:59;;;;;;;10.70;7.50;;;;;;;4.18;96.55;93801.06;1778757;78;21008;-85
2021/10/03 00:09:26;;;;;;;10.23;6.87;;;;;;;4.14;96.55;93793.67;1825072;78;21034;-86
2021/10/03 00:11:53;;;;;;;8.68;6.17;;;;;;;4.17;96.35;93790.06;1839136;76;21126;-85
2021/10/03 00:14:21;;;;;;;9.40;6.97;;;;;;;4.14;95.24;93789.63;1798602;76;21097;-85
2021/10/03 00:16:48;;;;;;;14.43;6.50;;;;;;;3.99;95.17;93795.77;1792401;77;21781;-86
2021/10/03 00:19:15;;;;;;;12.50;6.72;;;;;;;3.84;95.78;93786.53;1830689;77;21497;-85
2021/10/03 00:21:42;;;;;;;7.00;5.22;;;;;;;3.80;96.19;93792.92;1841034;77;21100;-85
2021/10/03 00:24:12;;;;;;;8.58;5.25;;;;;;;3.73;95.85;93794.09;1854043;75;21033;-85
2021/10/03 00:26:40;;;;;;;9.15;5.80;;;;;;;3.67;96.46;93799.48;1835749;76;21057;-84
2021/10/03 00:29:06;;;;;;;8.80;5.42;;;;;;;3.64;97.21;93803.63;1832912;76;21563;-85
2021/10/03 00:31:33;;;;;;;8.63;5.95;;;;;;;3.67;97.60;93807.55;1841040;76;21105;-85
2021/10/03 00:33:59;;;;;;;6.90;5.70;;;;;;;3.71;97.52;93815.16;1811378;77;21045;-84
2021/10/03 00:36:27;;;;;;;5.62;4.87;;;;;;;3.75;97.67;93807.41;1836929;77;21047;-85
2021/10/03 00:38:54;;;;;;;6.10;4.97;;;;;;;3.81;97.34;93802.58;1809651;77;21046;-85
2021/10/03 00:41:21;;;;;;;9.18;5.37;;;;;;;3.69;96.67;93798.03;1814574;76;21822;-85
2021/10/03 00:43:47;;;;;;;6.22;5.28;;;;;;;3.69;96.67;93798.03;1852267;75;21060;-85
2021/10/03 00:46:15;;;;;;;13.98;5.37;;;;;;;3.66;97.18;93790.64;1833671;77;21041;-86
2021/10/03 00:48:42;;;;;;;14.07;5.10;;;;;;;3.71;97.41;93790.38;1842304;76;21071;-86
2021/10/03 00:51:08;;;;;;;6.78;5.33;;;;;;;3.76;96.90;93786.66;1829452;77;21054;-86
2021/10/03 00:53:35;;;;;;;9.90;6.30;;;;;;;3.75;96.25;93775.13;1829181;77;21130;-85
2021/10/03 00:56:01;;;;;;;7.92;5.37;;;;;;;3.74;96.34;93780.30;1818775;77;21073;-86
2021/10/03 00:58:28;;;;;;;9.25;5.33;;;;;;;3.69;96.48;93780.55;1803256;77;21088;-86
2021/10/03 01:00:57;;;;;;;11.90;5.70;;;;;;;3.64;96.99;93779.42;1766782;78;21769;-87
2021/10/03 01:03:23;;;;;;;7.08;5.28;;;;;;;3.60;97.70;93779.89;1746027;78;21050;-86
2021/10/03 01:05:51;;;;;;;7.92;5.33;;;;;;;3.62;98.04;93779.78;1821473;75;21825;-87
2021/10/03 01:08:18;;;;;;;8.78;6.60;;;;;;;3.63;98.13;93775.95;1836760;75;21068;-86
2021/10/03 01:10:46;;;;;;;9.23;6.75;;;;;;;3.63;98.13;93775.95;1830688;75;21027;-87
2021/10/03 01:13:13;;;;;;;7.97;5.60;;;;;;;3.67;98.09;93773.37;1844383;75;21055;-85
2021/10/03 01:15:42;;;;;;;10.25;6.20;;;;;;;3.67;98.09;93773.37;1773563;78;21070;-87
2021/10/03 01:18:09;;;;;;;8.75;5.62;;;;;;;3.64;97.99;93779.42;1769226;78;21131;-87
2021/10/03 01:20:35;;;;;;;7.78;5.67;;;;;;;3.66;98.38;93779.88;1843887;75;20986;-86
2021/10/03 01:23:05;;;;;;;6.10;5.20;;;;;;;3.69;98.83;93776.52;1828145;77;21047;-86
2021/10/03 01:25:35;;;;;;;5.65;5.00;;;;;;;3.69;99.06;93774.39;1826677;76;21027;-86
2021/10/03 01:28:02;;;;;;;6.40;4.85;;;;;;;3.74;99.20;93780.86;1842352;75;21041;-86
2021/10/03 01:30:29;;;;;;;8.10;5.33;;;;;;;3.72;98.76;93778.50;1824559;76;21039;-85
2021/10/03 01:32:56;;;;;;;7.42;5.17;;;;;;;3.71;99.28;93778.84;1802229;78;21794;-86
2021/10/03 01:35:23;;;;;;;6.00;4.72;;;;;;;3.63;99.59;93774.62;1805873;77;21145;-86
2021/10/03 01:37:50;;;;;;;8.80;5.55;;;;;;;3.64;100.00;93772.14;1780044;77;21082;-86
2021/10/03 01:40:18;;;;;;;8.63;4.55;;;;;;;3.64;100.00;93772.14;1811040;77;21085;-87
2021/10/03 01:42:44;;;;;;;7.28;4.50;;;;;;;3.63;99.27;93768.46;1824488;77;21110;-87
2021/10/03 01:45:13;;;;;;;6.22;4.47;;;;;;;3.57;98.25;93766.59;1837720;75;21037;-87
2021/10/03 01:48:14;;;;;;;6.90;4.90;;;;;;;3.48;99.26;93769.19;1803776;76;21068;-87
2021/10/03 01:50:49;;;;;;;6.33;5.20;;;;;;;3.48;100.00;93765.16;1836609;75;21203;-87
2021/10/03 01:53:28;;;;;;;9.95;4.83;;;;;;;3.45;100.00;93766.61;1838292;76;21057;-89
2021/10/03 01:55:54;;;;;;;5.05;4.55;;;;;;;3.47;100.00;93765.72;1825920;77;21802;-87
2021/10/03 01:58:22;;;;;;;6.87;4.65;;;;;;;3.50;100.00;93771.77;1822068;77;21607;-88
2021/10/03 02:00:51;;;;;;;8.03;5.50;;;;;;;3.50;100.00;93766.39;1775925;79;21006;-87
2021/10/03 02:03:18;;;;;;;6.42;5.10;;;;;;;3.55;100.00;93764.79;1821123;77;21045;-85
2021/10/03 02:05:46;;;;;;;6.85;4.97;;;;;;;3.55;100.00;93764.79;1839726;76;20992;-85
2021/10/03 02:08:13;;;;;;;6.55;5.20;;;;;;;3.60;100.00;93760.50;1810029;77;21149;-86
2021/10/03 02:10:42;;;;;;;5.85;5.22;;;;;;;3.56;100.00;93754.81;1776057;77;20987;-87
2021/10/03 02:13:09;;;;;;;8.80;5.28;;;;;;;3.56;100.00;93754.81;1824639;77;20967;-85
2021/10/03 02:15:41;;;;;;;7.15;5.37;;;;;;;3.48;100.00;93768.63;1832452;77;21069;-86
2021/10/03 02:18:10;;;;;;;7.22;5.35;;;;;;;3.48;100.00;93768.63;1838381;75;21065;-87
2021/10/03 02:20:37;;;;;;;6.67;5.17;;;;;;;3.45;100.00;93774.67;1838603;75;21087;-87
2021/10/03 02:23:06;;;;;;;7.92;5.62;;;;;;;3.40;100.00;93769.55;1829125;75;21037;-87
2021/10/03 02:25:32;;;;;;;7.72;5.25;;;;;;;3.38;100.00;93775.81;1847783;75;21431;-87
2021/10/03 02:27:59;;;;;;;9.05;5.58;;;;;;;3.36;100.00;93771.36;1826100;77;21044;-86
2021/10/03 02:30:26;;;;;;;6.90;5.22;;;;;;;3.32;100.00;93770.48;1844313;76;21629;-85
2021/10/03 02:32:52;;;;;;;7.83;4.40;;;;;;;3.25;99.52;93775.08;1838877;75;21741;-85
2021/10/03 02:35:19;;;;;;;7.50;4.62;;;;;;;3.10;98.78;93776.56;1813579;77;21147;-86
2021/10/03 02:37:46;;;;;;;7.92;4.62;;;;;;;2.90;98.90;93779.63;1770856;77;21438;-87
2021/10/03 02:40:15;;;;;;;5.97;4.65;;;;;;;2.82;99.42;93781.06;1844372;75;21051;-86
2021/10/03 02:42:42;;;;;;;10.63;4.97;;;;;;;2.75;99.94;93782.99;1824464;77;21070;-86
2021/10/03 02:45:09;;;;;;;7.55;4.72;;;;;;;2.67;100.00;93779.30;1834907;75;22245;-86
2021/10/03 02:47:36;;;;;;;7.35;4.62;;;;;;;2.63;100.00;93779.75;1837911;76;21092;-86
2021/10/03 02:50:04;;;;;;;7.83;4.58;;;;;;;2.66;100.00;93783.09;1828909;77;21350;-88
2021/10/03 02:52:32;;;;;;;7.65;5.12;;;;;;;2.68;100.00;93788.92;1835547;75;21038;-88
2021/10/03 02:54:58;;;;;;;6.70;4.78;;;;;;;2.75;100.00;93780.87;1814823;77;21038;-86
2021/10/03 02:57:24;;;;;;;10.05;4.95;;;;;;;2.81;100.00;93788.34;1797507;77;21964;-87
2021/10/03 02:59:51;;;;;;;6.62;5.15;;;;;;;2.85;100.00;93787.11;1835614;76;21569;-87
2021/10/03 03:02:17;;;;;;;8.48;5.55;;;;;;;2.89;100.00;93795.49;1843220;76;21010;-87
2021/10/03 03:04:44;;;;;;;6.45;4.20;;;;;;;2.95;100.00;93795.28;1791998;78;21048;-86
2021/10/03 03:07:10;;;;;;;10.48;5.20;;;;;;;2.98;100.00;93802.11;1821613;77;21033;-86
2021/10/03 03:09:37;;;;;;;10.50;5.33;;;;;;;3.01;100.00;93807.34;1810762;77;21574;-87
2021/10/03 03:12:05;;;;;;;6.47;4.83;;;;;;;3.04;100.00;93794.02;1832149;77;21007;-87
2021/10/03 03:14:31;;;;;;;7.00;4.67;;;;;;;3.10;100.00;93794.03;1821835;77;21507;-86
2021/10/03 03:16:57;;;;;;;6.80;5.10;;;;;;;3.13;100.00;93793.92;1847941;75;21029;-88
2021/10/03 03:19:24;;;;;;;7.25;4.95;;;;;;;3.15;100.00;93794.34;1824089;77;21074;-87
2021/10/03 03:21:50;;;;;;;7.72;4.45;;;;;;;3.09;100.00;93791.13;1824480;77;22286;-87
2021/10/03 03:24:17;;;;;;;5.17;4.12;;;;;;;3.04;100.00;93784.62;1801201;77;21074;-88
2021/10/03 03:26:45;;;;;;;6.95;5.25;;;;;;;3.02;100.00;93781.51;1789351;78;21083;-88
2021/10/03 03:29:11;;;;;;;8.10;5.58;;;;;;;3.00;100.00;93785.08;1843782;76;21009;-87
2021/10/03 03:31:38;;;;;;;6.30;5.17;;;;;;;3.00;100.00;93778.92;1778547;78;21086;-87
2021/10/03 03:34:04;;;;;;;6.22;5.28;;;;;;;3.00;100.00;93786.42;1834317;75;21095;-86
2021/10/03 03:36:31;;;;;;;6.67;5.30;;;;;;;3.00;100.00;93786.98;1840829;76;21502;-88
2021/10/03 03:38:57;;;;;;;7.10;4.97;;;;;;;2.99;100.00;93790.80;1837165;75;21026;-88
2021/10/03 03:41:23;;;;;;;7.10;5.60;;;;;;;3.00;100.00;93798.51;1838098;75;21724;-87
2021/10/03 03:43:50;;;;;;;5.97;4.95;;;;;;;3.02;100.00;93798.19;1770723;76;21018;-86
2021/10/03 03:46:16;;;;;;;5.55;4.80;;;;;;;3.03;100.00;93796.50;1822725;76;21097;-87
2021/10/03 03:48:42;;;;;;;7.47;5.85;;;;;;;3.01;100.00;93797.95;1798222;76;21030;-88
2021/10/03 03:51:10;;;;;;;6.62;4.72;;;;;;;3.01;100.00;93806.81;1787688;77;21066;-88
2021/10/03 03:53:37;;;;;;;8.30;5.80;;;;;;;3.01;100.00;93804.66;1804764;76;21612;-87
2021/10/03 03:56:04;;;;;;;6.83;4.67;;;;;;;3.01;100.00;93798.75;1852088;76;21005;-87
2021/10/03 03:58:30;;;;;;;6.35;4.85;;;;;;;3.03;100.00;93803.78;1826800;76;21196;-88
2021/10/03 04:00:57;;;;;;;5.95;5.05;;;;;;;3.01;100.00;93812.72;1839640;75;21040;-86
2021/10/03 04:03:23;;;;;;;6.37;5.55;;;;;;;2.98;100.00;93806.14;1833131;76;21052;-86
2021/10/03 04:05:50;;;;;;;6.58;5.33;;;;;;;2.98;100.00;93799.98;1825406;77;21073;-89
2021/10/03 04:08:19;;;;;;;6.25;5.05;;;;;;;2.97;100.00;93803.77;1839613;76;21043;-88
2021/10/03 04:10:46;;;;;;;7.80;5.62;;;;;;;2.96;100.00;93807.02;1824189;77;21925;-86
2021/10/03 04:13:12;;;;;;;7.28;5.83;;;;;;;2.92;100.00;93806.91;1789068;77;21018;-87
2021/10/03 04:15:39;;;;;;;6.12;5.05;;;;;;;2.92;100.00;93806.91;1781046;79;21190;-87
2021/10/03 04:18:05;;;;;;;5.97;5.22;;;;;;;2.96;100.00;93811.62;1801747;77;21029;-87
2021/10/03 04:20:33;;;;;;;5.05;4.42;;;;;;;2.96;100.00;93811.62;1832457;77;21007;-86
2021/10/03 04:22:59;;;;;;;6.05;4.53;;;;;;;3.01;100.00;93810.84;1844841;76;21137;-87
2021/10/03 04:25:26;;;;;;;4.97;4.00;;;;;;;3.04;100.00;93803.99;1819968;77;21039;-86
2021/10/03 04:27:52;;;;;;;9.90;4.53;;;;;;;3.04;100.00;93808.80;1786566;77;21043;-87
2021/10/03 04:30:19;;;;;;;4.92;4.42;;;;;;;3.02;100.00;93816.44;1773766;78;21042;-88
2021/10/03 04:32:45;;;;;;;7.78;4.40;;;;;;;2.96;100.00;93803.00;1781157;77;21187;-90
2021/10/03 04:35:12;;;;;;;5.33;4.00;;;;;;;2.91;100.00;93807.27;1831473;76;21145;-90
2021/10/03 04:37:40;;;;;;;5.58;4.78;;;;;;;2.86;100.00;93817.68;1814524;77;21054;-86
2021/10/03 04:40:08;;;;;;;5.15;4.55;;;;;;;2.82;100.00;93810.07;1815161;77;21093;-87
2021/10/03 04:42:34;;;;;;;6.00;4.92;;;;;;;2.85;100.00;93813.97;1780694;78;21058;-88
2021/10/03 04:45:01;;;;;;;5.72;4.53;;;;;;;2.84;100.00;93814.53;1828982;77;20983;-87
2021/10/03 04:47:27;;;;;;;7.67;4.62;;;;;;;2.86;100.00;93815.56;1811208;77;21560;-88
2021/10/03 04:49:54;;;;;;;5.65;4.03;;;;;;;2.87;100.00;93807.72;1807541;77;21046;-87
2021/10/03 04:52:21;;;;;;;5.03;3.95;;;;;;;2.88;100.00;93805.24;1810025;77;21062;-87
2021/10/03 04:54:48;;;;;;;5.60;4.37;;;;;;;2.90;100.00;93809.17;1812154;77;21054;-88
2021/10/03 04:57:14;;;;;;;4.58;4.17;;;;;;;2.92;100.00;93811.51;1823570;75;21042;-87
2021/10/03 04:59:40;;;;;;;6.47;4.50;;;;;;;2.91;100.00;93821.47;1785553;77;21131;-87
2021/10/03 05:02:07;;;;;;;8.08;4.78;;;;;;;2.90;100.00;93812.42;1828016;77;21008;-89
2021/10/03 05:04:33;;;;;;;6.90;5.55;;;;;;;2.93;100.00;93825.16;1781271;77;21087;-89
2021/10/03 05:07:00;;;;;;;10.93;5.17;;;;;;;2.94;100.00;93825.96;1801604;77;21092;-88
2021/10/03 05:09:27;;;;;;;4.75;4.22;;;;;;;2.96;100.00;93829.08;1811816;76;21070;-86
2021/10/03 05:11:55;;;;;;;5.92;4.15;;;;;;;3.06;100.00;93827.29;1748261;77;21168;-88
2021/10/03 05:14:22;;;;;;;4.95;3.85;;;;;;;3.28;100.00;93824.12;1807070;77;21087;-86
2021/10/03 05:16:49;;;;;;;5.85;4.50;;;;;;;3.52;100.00;93827.87;1777399;78;21093;-86
2021/10/03 05:19:16;;;;;;;4.90;4.40;;;;;;;3.62;100.00;93822.03;1824562;75;21063;-88
2021/10/03 05:21:42;;;;;;;4.60;4.08;;;;;;;3.75;100.00;93830.83;1808374;77;21589;-87
2021/10/03 05:24:09;;;;;;;5.42;4.90;;;;;;;3.91;100.00;93828.97;1814085;77;21755;-87
2021/10/03 05:26:35;;;;;;;6.85;5.30;;;;;;;4.01;100.00;93828.48;1775504;78;21101;-86
2021/10/03 05:29:02;;;;;;;4.25;3.85;;;;;;;4.02;100.00;93823.31;1821210;77;21744;-87
2021/10/03 05:31:31;;;;;;;6.40;4.15;;;;;;;4.02;100.00;93829.27;1789102;77;21047;-90
2021/10/03 05:33:57;;;;;;;6.12;4.20;;;;;;;4.07;100.00;93835.77;1807914;76;21331;-90
2021/10/03 05:36:24;;;;;;;6.17;4.67;;;;;;;4.17;100.00;93832.55;1842384;75;21080;-90
2021/10/03 05:38:53;;;;;;;4.50;4.05;;;;;;;4.32;100.00;93831.80;1827702;77;21598;-91
2021/10/03 05:41:23;;;;;;;6.85;4.42;;;;;;;4.51;100.00;93825.74;1841788;75;21623;-91
2021/10/03 05:43:50;;;;;;;5.65;5.05;;;;;;;4.83;100.00;93825.20;1824414;76;21116;-89
2021/10/03 05:46:16;;;;;;;3.90;3.58;;;;;;;5.28;99.74;93837.98;1835656;75;21081;-88
2021/10/03 05:48:43;;;;;;;4.40;3.80;;;;;;;5.69;98.36;93837.13;1835632;75;21072;-87
2021/10/03 05:51:10;;;;;;;5.40;4.40;;;;;;;5.97;94.62;93837.73;1824910;76;21269;-88
2021/10/03 05:53:36;;;;;;;4.20;3.80;;;;;;;6.10;92.16;93838.95;1846251;75;22126;-87
2021/10/03 05:56:03;;;;;;;4.83;3.60;;;;;;;6.18;91.40;93840.08;1827325;77;21537;-89
2021/10/03 05:58:30;;;;;;;5.83;4.62;;;;;;;6.36;90.44;93836.91;1834194;75;21123;-89
2021/10/03 06:00:56;;;;;;;6.17;4.30;;;;;;;6.68;89.57;93836.92;1812107;75;21470;-89
2021/10/03 06:03:22;;;;;;;5.78;3.72;;;;;;;7.08;87.41;93834.89;1779640;76;21512;-88
2021/10/03 06:05:49;;;;;;;3.77;3.47;;;;;;;7.23;85.25;93838.02;1825197;77;21060;-86
2021/10/03 06:08:16;;;;;;;4.80;3.75;;;;;;;7.17;83.76;93833.48;1841402;75;21928;-88
2021/10/03 06:10:43;;;;;;;3.85;3.52;;;;;;;7.09;83.04;93844.55;1830448;75;21044;-88
2021/10/03 06:13:10;;;;;;;3.90;3.50;;;;;;;7.01;83.07;93841.73;1814328;77;21054;-90
2021/10/03 06:15:42;;;;;;;3.67;3.37;;;;;;;6.93;83.23;93837.36;1798151;77;21066;-89
2021/10/03 06:18:06;;;;;;;4.42;3.90;;;;;;;6.81;83.85;93836.20;1770177;77;21677;-87
2021/10/03 06:20:33;;;;;;;4.08;3.75;;;;;;;6.76;83.94;93841.89;1825098;77;21003;-88
2021/10/03 06:23:00;;;;;;;5.60;4.22;;;;;;;6.65;84.67;93836.29;1778371;77;21073;-87
2021/10/03 06:25:26;;;;;;;4.92;3.90;;;;;;;6.62;85.25;93833.52;1769513;79;21101;-88
2021/10/03 06:27:52;;;;;;;4.37;3.98;;;;;;;6.69;86.11;93834.42;1792190;77;21558;-89
2021/10/03 06:30:21;;;;;;;4.78;4.00;;;;;;;6.80;85.67;93831.91;1811290;75;21635;-87
2021/10/03 06:32:47;;;;;;;6.22;4.72;;;;;;;6.83;84.74;93830.42;1843913;75;21523;-87
2021/10/03 06:35:16;;;;;;;6.25;4.78;;;;;;;6.79;84.71;93833.06;1824847;75;21601;-89
2021/10/03 06:37:43;;;;;;;5.58;5.00;;;;;;;6.69;84.73;93835.78;1839832;75;21727;-88
2021/10/03 06:40:15;;;;;;;4.80;4.33;;;;;;;6.60;85.23;93836.59;1805912;76;21656;-86
2021/10/03 06:42:43;;;;;;;5.00;4.50;;;;;;;6.47;85.69;93834.64;1829376;75;21371;-89
2021/10/03 06:45:09;;;;;;;4.65;4.25;;;;;;;6.28;86.17;93828.70;1845047;75;21041;-86
2021/10/03 06:47:37;;;;;;;7.55;5.30;;;;;;;6.15;87.70;93829.98;1773672;78;21074;-91
2021/10/03 06:50:04;;;;;;;6.03;4.80;;;;;;;6.07;88.37;93826.37;1774212;78;21146;-87
2021/10/03 06:52:33;;;;;;;8.83;4.90;;;;;;;6.03;88.96;93824.17;1769393;78;21530;-87
2021/10/03 06:55:00;;;;;;;5.00;4.50;;;;;;;5.99;89.25;93824.67;1761494;77;21057;-86
2021/10/03 06:57:26;;;;;;;5.65;5.10;;;;;;;5.97;89.85;93824.80;1778500;78;21117;-86
2021/10/03 06:59:53;;;;;;;7.05;5.47;;;;;;;5.99;90.41;93815.80;1841392;75;21638;-85
2021/10/03 07:02:29;;;;;;;5.12;4.60;;;;;;;6.06;91.13;93822.69;1761437;78;21082;-87
2021/10/03 07:04:55;;;;;;;6.65;5.22;;;;;;;6.23;90.80;93824.15;1788305;77;21059;-85
2021/10/03 07:07:21;;;;;;;5.55;5.05;;;;;;;6.40;90.39;93812.91;1796607;77;21101;-88
2021/10/03 07:09:48;;;;;;;5.22;4.72;;;;;;;6.50;89.38;93808.23;1786247;78;21088;-88
2021/10/03 07:12:14;;;;;;;5.08;4.55;;;;;;;6.54;89.72;93809.66;1771012;79;21065;-87
2021/10/03 07:14:44;;;;;;;5.55;4.97;;;;;;;6.57;89.50;93811.64;1844738;75;21535;-88
2021/10/03 07:17:11;;;;;;;6.92;5.28;;;;;;;6.60;89.74;93805.52;1829311;75;21057;-86
2021/10/03 07:19:39;;;;;;;7.35;5.35;;;;;;;6.61;89.30;93811.13;1796133;77;20990;-86
2021/10/03 07:22:07;;;;;;;7.58;5.65;;;;;;;6.60;89.61;93804.17;1764222;79;21132;-86
2021/10/03 07:24:35;;;;;;;10.15;5.37;;;;;;;6.65;90.25;93806.56;1753571;78;21078;-88
2021/10/03 07:27:02;;;;;;;6.40;5.80;;;;;;;6.75;90.85;93805.97;1826345;77;21070;-86
2021/10/03 07:29:30;;;;;;;9.05;5.62;;;;;;;6.86;90.86;93802.09;1830296;77;21062;-87
2021/10/03 07:31:56;;;;;;;5.40;4.80;;;;;;;6.96;90.56;93808.83;1836669;75;21041;-87
2021/10/03 07:34:22;;;;;;;7.92;5.20;;;;;;;7.01;90.11;93801.17;1816305;75;21688;-86
2021/10/03 07:36:49;;;;;;;7.00;5.28;;;;;;;7.09;89.58;93799.36;1789547;77;21778;-85
2021/10/03 07:39:16;;;;;;;5.78;5.15;;;;;;;7.19;90.09;93800.67;1819611;77;21124;-86
2021/10/03 07:41:43;;;;;;;5.78;4.75;;;;;;;7.37;90.23;93805.78;1775113;78;21563;-87
2021/10/03 07:44:09;;;;;;;5.22;4.72;;;;;;;7.54;89.68;93799.81;1820099;76;21070;-85
2021/10/03 07:46:36;;;;;;;5.87;5.28;;;;;;;7.70;88.57;93800.20;1813443;75;21022;-85
2021/10/03 07:49:02;;;;;;;6.78;5.15;;;;;;;7.81;88.02;93793.00;1788194;77;21107;-85
2021/10/03 07:51:30;;;;;;;5.22;4.70;;;;;;;7.99;87.65;93792.64;1820236;78;21793;-87
2021/10/03 07:53:56;;;;;;;5.25;4.72;;;;;;;8.16;87.81;93781.02;1815376;76;20953;-86
2021/10/03 07:56:23;;;;;;;5.62;4.87;;;;;;;8.34;86.48;93783.92;1768500;78;21058;-85
2021/10/03 07:58:50;;;;;;;5.17;4.30;;;;;;;8.56;86.44;93789.02;1795367;76;21112;-87
2021/10/03 08:01:16;;;;;;;6.50;5.12;;;;;;;8.72;85.19;93775.98;1772539;78;21056;-86
2021/10/03 08:03:43;;;;;;;6.67;4.85;;;;;;;8.89;84.57;93786.80;1811018;77;21146;-86
2021/10/03 08:06:10;;;;;;;6.67;4.85;;;;;;;8.98;83.38;93774.45;1824285;77;21532;-84
2021/10/03 08:08:36;;;;;;;7.03;5.17;;;;;;;9.04;83.34;93772.19;1830133;75;21124;-87
2021/10/03 08:11:03;;;;;;;6.78;5.10;;;;;;;9.12;82.65;93776.51;1834764;76;21110;-86
2021/10/03 08:13:31;;;;;;;5.75;4.65;;;;;;;9.20;83.10;93779.47;1770178;79;21089;-85
2021/10/03 08:15:57;;;;;;;8.78;4.78;;;;;;;9.34;83.85;93775.30;1787647;78;21129;-87
2021/10/03 08:18:24;;;;;;;4.67;4.12;;;;;;;9.51;82.64;93767.83;1786206;78;21066;-85
2021/10/03 08:20:51;;;;;;;6.55;4.45;;;;;;;9.66;82.12;93775.47;1778025;78;21127;-86
2021/10/03 08:23:18;;;;;;;6.45;4.60;;;;;;;9.81;80.77;93762.74;1777305;79;21085;-86
2021/10/03 08:25:45;;;;;;;6.83;4.20;;;;;;;9.95;79.56;93764.94;1769122;78;21113;-88
2021/10/03 08:28:12;;;;;;;4.17;3.77;;;;;;;10.12;78.75;93770.84;1782206;77;21197;-87
2021/10/03 08:30:39;;;;;;;8.63;4.95;;;;;;;10.30;78.54;93766.83;1818340;77;21592;-88
2021/10/03 08:33:05;;;;;;;6.67;4.60;;;;;;;10.48;78.63;93762.21;1846616;75;21133;-87
2021/10/03 08:35:34;;;;;;;8.85;5.90;;;;;;;10.67;77.79;93761.08;1828582;75;21050;-87
2021/10/03 08:38:01;;;;;;;5.85;4.60;;;;;;;10.82;76.91;93755.06;1832937;76;21100;-87
2021/10/03 08:40:27;;;;;;;4.22;3.83;;;;;;;10.97;76.57;93760.70;1836688;75;21091;-86
2021/10/03 08:42:54;;;;;;;6.25;5.12;;;;;;;11.14;76.29;93759.16;1825209;77;21074;-85
2021/10/03 08:45:20;;;;;;;5.95;5.40;;;;;;;11.32;74.43;93754.47;1842107;75;21031;-87
2021/10/03 08:47:47;;;;;;;6.03;4.90;;;;;;;11.51;74.20;93751.11;1788090;76;21038;-86
2021/10/03 08:50:15;;;;;;;8.48;4.95;;;;;;;11.68;72.14;93749.70;1815470;75;21034;-86
2021/10/03 08:52:43;;;;;;;5.17;4.40;;;;;;;11.83;71.45;93747.75;1834821;76;21352;-87
2021/10/03 08:55:11;;;;;;;7.83;5.30;;;;;;;11.93;70.95;93742.67;1817634;76;21120;-86
2021/10/03 08:57:37;;;;;;;8.13;4.53;;;;;;;12.03;71.07;93745.33;1843627;75;21544;-86
2021/10/03 09:00:22;;;;;;;5.53;4.45;;;;;;;12.17;72.52;93748.58;1828702;75;21022;-86
2021/10/03 09:03:00;;;;;;;6.28;4.15;;;;;;;12.35;72.29;93738.95;1834254;76;20994;-86
2021/10/03 09:05:28;;;;;;;5.00;4.50;;;;;;;12.57;71.76;93740.97;1829224;76;21242;-85
2021/10/03 09:08:09;;;;;;;5.85;4.10;;;;;;;12.74;70.49;93738.70;1806595;76;21080;-86
2021/10/03 09:10:55;;;;;;;6.08;4.05;;;;;;;12.84;69.94;93739.80;1776525;76;21011;-88
2021/10/03 09:13:36;;;;;;;6.95;4.60;;;;;;;12.95;71.20;93743.23;1837207;75;21098;-84
2021/10/03 09:16:32;;;;;;;7.30;4.22;;;;;;;13.10;71.09;93735.70;1822893;75;21412;-85
2021/10/03 09:18:59;;;;;;;5.35;3.92;;;;;;;13.25;70.24;93739.12;1831335;77;21137;-85
2021/10/03 09:21:38;;;;;;;6.37;5.28;;;;;;;13.38;69.93;93732.55;1816056;77;21109;-85
2021/10/03 09:24:11;;;;;;;7.05;4.72;;;;;;;13.51;69.65;93725.41;1834901;76;21099;-84
2021/10/03 09:27:06;;;;;;;4.67;4.15;;;;;;;13.68;69.08;93728.53;1777013;79;21046;-86
2021/10/03 09:29:33;;;;;;;4.70;4.00;;;;;;;13.85;68.68;93722.09;1765807;79;21553;-84
2021/10/03 09:32:17;;;;;;;5.08;4.40;;;;;;;13.99;64.62;93723.09;1801147;77;21541;-83
2021/10/03 09:34:49;;;;;;;5.15;4.17;;;;;;;14.09;62.02;93731.77;1788139;77;21091;-84
2021/10/03 09:37:28;;;;;;;4.20;3.80;;;;;;;14.18;64.64;93729.33;1774136;79;21053;-85
2021/10/03 09:40:08;;;;;;;6.05;4.35;;;;;;;14.30;65.00;93723.30;1792861;77;21030;-86
2021/10/03 09:42:36;;;;;;;7.67;3.60;;;;;;;14.44;64.68;93721.55;1789844;79;21102;-85
2021/10/03 09:45:15;;;;;;;4.97;4.17;;;;;;;14.56;64.05;93723.17;1738915;79;21159;-87
2021/10/03 09:47:44;;;;;;;5.85;4.25;;;;;;;14.68;62.75;93716.35;1838167;76;21046;-84
2021/10/03 09:50:14;;;;;;;8.25;4.65;;;;;;;14.76;61.63;93710.95;1818469;75;21080;-85
2021/10/03 09:52:41;;;;;;;4.08;3.52;;;;;;;14.84;60.78;93714.34;1762959;77;21591;-85
2021/10/03 09:55:14;;;;;;;7.00;3.20;;;;;;;14.85;60.57;93711.78;1823272;76;21027;-85
2021/10/03 09:57:41;;;;;;;9.40;4.10;;;;;;;14.88;58.77;93714.30;1780356;79;21202;-84
2021/10/03 10:00:10;;;;;;;5.80;3.75;;;;;;;14.90;59.54;93708.59;1831546;77;20954;-86
2021/10/03 10:02:40;;;;;;;4.80;4.10;;;;;;;14.92;58.44;93706.20;1809473;77;21088;-86
2021/10/03 10:05:08;;;;;;;12.45;4.87;;;;;;;14.90;58.56;93705.86;1826981;77;21507;-88
2021/10/03 10:07:35;;;;;;;9.90;4.50;;;;;;;14.91;58.16;93701.15;1827796;77;21075;-85
2021/10/03 10:10:05;;;;;;;5.35;3.37;;;;;;;14.88;58.75;93703.34;1825456;78;21100;-86
2021/10/03 10:12:34;;;;;;;4.80;4.40;;;;;;;14.86;59.76;93702.40;1827745;77;21065;-86
2021/10/03 10:15:10;;;;;;;4.37;3.90;;;;;;;14.94;60.41;93706.56;1826487;77;21037;-85
2021/10/03 10:17:38;;;;;;;4.35;3.95;;;;;;;15.09;60.65;93698.90;1824002;77;21064;-86
2021/10/03 10:20:27;;;;;;;7.62;4.00;;;;;;;15.18;60.29;93696.38;1767749;79;21096;-85
2021/10/03 10:23:10;;;;;;;19.92;7.03;;;;;;;15.26;59.23;93696.44;1814086;77;21145;-85
2021/10/03 10:25:47;;;;;;;4.45;3.50;;;;;;;15.31;59.63;93691.09;1749261;77;21054;-85
2021/10/03 10:28:22;;;;;;;5.47;3.25;;;;;;;15.33;58.05;93692.80;1823850;77;21422;-85
2021/10/03 10:31:12;;;;;;;7.45;3.65;;;;;;;15.30;57.63;93686.19;1825693;77;21038;-85
2021/10/03 10:34:00;;;;;;;3.62;3.33;;;;;;;15.33;57.46;93680.47;1826551;77;21089;-83
2021/10/03 10:36:34;;;;;;;5.78;3.47;;;;;;;15.41;58.00;93686.59;1767297;80;21146;-84
2021/10/03 10:39:15;;;;;;;6.37;5.10;;;;;;;15.47;57.30;93680.22;1803949;77;21000;-83
2021/10/03 10:41:54;;;;;;;17.40;13.05;;;;;;;15.51;56.64;93674.67;1834869;77;21068;-84
2021/10/03 10:44:36;;;;;;;7.67;6.22;;;;;;;15.54;56.64;93678.72;1810484;78;21026;-83
2021/10/03 10:49:59;;;;;;;5.67;3.62;;;;;;;15.60;55.02;93665.28;1795675;77;21234;-84
2021/10/03 10:52:27;;;;;;;7.05;3.30;;;;;;;15.62;55.08;93669.77;1716408;79;21073;-85
2021/10/03 10:55:09;;;;;;;4.65;3.20;;;;;;;15.68;55.15;93665.95;1797241;78;21061;-86
2021/10/03 10:57:52;;;;;;;6.17;3.77;;;;;;;15.74;54.51;93666.42;1799074;78;21033;-86
2021/10/03 11:00:25;;;;;;;4.70;3.67;;;;;;;15.81;54.17;93664.14;1784572;78;21010;-87
2021/10/03 11:02:59;;;;;;;4.90;2.98;;;;;;;15.86;53.67;93660.13;1817107;76;21182;-87
2021/10/03 11:05:46;;;;;;;3.85;3.10;;;;;;;15.90;53.53;93657.48;1798408;78;21655;-88
2021/10/03 11:08:17;;;;;;;14.93;3.17;;;;;;;16.00;54.56;93657.86;1770935;80;21010;-86
2021/10/03 11:11:09;;;;;;;6.92;4.28;;;;;;;16.13;54.43;93659.95;1781960;79;21882;-87
2021/10/03 11:13:48;;;;;;;7.70;4.33;;;;;;;16.15;52.93;93655.59;1787311;78;20957;-85
2021/10/03 11:16:33;;;;;;;4.75;3.35;;;;;;;16.14;52.49;93658.17;1729550;80;21772;-87
2021/10/03 11:19:16;;;;;;;;;;;;;;;16.13;51.45;93650.34;1753757;79;20998;-85
2021/10/03 11:21:48;;;;;;;3.30;2.95;;;;;;;16.16;52.14;93653.02;1765558;79;20145;-84
2021/10/03 11:24:20;;;;;;;5.78;2.85;;;;;;;16.17;52.46;93653.22;1766780;78;20949;-85
2021/10/03 11:26:57;;;;;;;3.02;2.67;;;;;;;16.23;51.86;93650.73;1783178;78;21640;-85
2021/10/03 11:29:27;;;;;;;2.95;2.65;;;;;;;16.30;53.18;93651.17;1813055;77;21091;-86
2021/10/03 11:32:03;;;;;;;4.50;3.05;;;;;;;16.38;52.90;93656.67;1803759;77;21007;-87
2021/10/03 11:34:47;;;;;;;2.70;2.50;;;;;;;16.45;53.13;93650.42;1778682;78;21174;-86
2021/10/03 11:37:34;;;;;;;4.67;2.72;;;;;;;16.60;51.83;93650.11;1791516;78;20963;-85
2021/10/03 11:40:13;;;;;;;4.20;2.30;;;;;;;16.73;51.23;93646.27;1807388;78;21697;-84
2021/10/03 11:42:50;;;;;;;4.85;2.70;;;;;;;16.82;51.41;93647.05;1800631;77;21088;-82
2021/10/03 11:45:23;;;;;;;4.35;2.92;;;;;;;16.83;50.38;93641.73;1800422;77;21209;-83
2021/10/03 11:47:54;;;;;;;3.47;2.77;;;;;;;16.84;50.20;93641.89;1803601;77;21118;-87
2021/10/03 11:50:32;;;;;;;9.23;5.83;;;;;;;16.81;50.21;93642.75;1796399;77;20909;-83